createdAt,value
2022-09-07T00:00:51.125Z,18.20
2022-09-07T00:03:18.651Z,18.10
2022-09-07T00:05:49.028Z,18.20
2022-09-07T00:08:18.323Z,18.20
2022-09-07T00:11:08.025Z,18.10
2022-09-07T00:13:40.689Z,18.20
2022-09-07T00:16:11.959Z,18.20
2022-09-07T00:18:43.661Z,18.20
2022-09-07T00:21:14.323Z,18.20
2022-09-07T00:23:41.489Z,18.10
2022-09-07T00:26:22.317Z,18.00
2022-09-07T00:28:50.198Z,18.00
2022-09-07T00:31:20.888Z,18.00
2022-09-07T00:33:49.134Z,18.00
2022-09-07T00:36:17.969Z,18.00
2022-09-07T00:38:45.372Z,18.10
2022-09-07T00:41:13.356Z,18.10
2022-09-07T00:43:51.128Z,18.10
2022-09-07T00:46:31.895Z,18.00
2022-09-07T00:49:18.487Z,18.00
2022-09-07T00:51:57.937Z,17.90
2022-09-07T00:54:34.383Z,17.50
2022-09-07T00:57:01.397Z,17.30
2022-09-07T00:59:35.893Z,17.20
2022-09-07T01:02:03.226Z,17.30
2022-09-07T01:04:32.436Z,17.40
2022-09-07T01:07:00.476Z,17.40
2022-09-07T01:09:28.632Z,17.50
2022-09-07T01:12:00.169Z,17.60
2022-09-07T01:14:33.381Z,17.60
2022-09-07T01:17:39.013Z,17.60
2022-09-07T01:20:50.581Z,17.60
2022-09-07T01:23:53.840Z,17.70
2022-09-07T01:26:54.282Z,17.70
2022-09-07T01:29:59.575Z,17.70
2022-09-07T01:32:58.160Z,17.60
2022-09-07T01:35:45.237Z,17.60
2022-09-07T01:38:25.955Z,17.50
2022-09-07T01:41:13.196Z,17.50
2022-09-07T01:43:45.223Z,17.40
2022-09-07T01:46:31.233Z,17.30
2022-09-07T01:49:08.936Z,17.30
2022-09-07T01:51:43.645Z,17.20
2022-09-07T01:54:41.535Z,17.20
2022-09-07T01:57:23.893Z,17.20
2022-09-07T02:00:07.880Z,17.10
2022-09-07T02:03:02.716Z,17.10
2022-09-07T02:05:54.412Z,17.10
2022-09-07T02:08:32.272Z,17.10
2022-09-07T02:11:16.902Z,17.00
2022-09-07T02:14:14.600Z,17.00
2022-09-07T02:17:19.262Z,17.00
2022-09-07T02:20:04.893Z,17.00
2022-09-07T02:22:35.880Z,17.00
2022-09-07T02:25:06.633Z,17.00
2022-09-07T02:27:59.216Z,17.00
2022-09-07T02:30:26.219Z,17.00
2022-09-07T02:32:53.266Z,16.90
2022-09-07T02:35:20.193Z,16.90
2022-09-07T02:37:49.116Z,16.90
2022-09-07T02:40:16.207Z,16.90
2022-09-07T02:42:45.438Z,17.00
2022-09-07T02:45:13.911Z,16.90
2022-09-07T02:47:40.769Z,16.90
2022-09-07T02:50:35.457Z,17.00
2022-09-07T02:53:33.940Z,17.00
2022-09-07T02:56:32.186Z,17.00
2022-09-07T02:59:51.732Z,17.00
2022-09-07T03:03:05.824Z,17.00
2022-09-07T03:06:01.979Z,17.10
2022-09-07T03:08:38.890Z,17.10
2022-09-07T03:11:07.641Z,17.10
2022-09-07T03:13:34.596Z,17.10
2022-09-07T03:16:01.935Z,17.00
2022-09-07T03:18:29.262Z,17.00
2022-09-07T03:20:56.489Z,17.00
2022-09-07T03:23:23.921Z,17.00
2022-09-07T03:25:51.262Z,17.00
2022-09-07T03:28:18.483Z,17.00
2022-09-07T03:30:47.379Z,16.90
2022-09-07T03:33:18.109Z,16.90
2022-09-07T03:35:47.461Z,17.00
2022-09-07T03:38:14.388Z,17.00
2022-09-07T03:40:41.697Z,17.00
2022-09-07T03:43:08.748Z,16.90
2022-09-07T03:45:35.749Z,16.90
2022-09-07T03:48:03.071Z,16.90
2022-09-07T03:50:29.984Z,16.90
2022-09-07T03:52:56.984Z,16.90
2022-09-07T03:55:23.980Z,17.00
2022-09-07T03:57:51.001Z,17.10
2022-09-07T04:00:17.984Z,17.10
2022-09-07T04:02:45.114Z,17.00
2022-09-07T04:05:12.261Z,17.00
2022-09-07T04:07:39.385Z,17.00
2022-09-07T04:10:07.026Z,17.00
2022-09-07T04:12:33.987Z,17.00
2022-09-07T04:15:00.953Z,17.00
2022-09-07T04:17:28.494Z,17.00
2022-09-07T04:19:55.881Z,17.00
2022-09-07T04:22:22.797Z,17.10
2022-09-07T04:24:49.826Z,17.10
2022-09-07T04:27:16.728Z,17.10
2022-09-07T04:29:43.744Z,17.10
2022-09-07T04:32:15.529Z,17.10
2022-09-07T04:34:42.898Z,17.10
2022-09-07T04:37:09.995Z,17.10
2022-09-07T04:39:37.257Z,17.10
2022-09-07T04:42:04.527Z,17.10
2022-09-07T04:44:31.542Z,17.10
2022-09-07T04:46:58.431Z,17.20
2022-09-07T04:49:25.432Z,17.10
2022-09-07T04:51:52.451Z,17.10
2022-09-07T04:54:19.954Z,17.10
2022-09-07T04:56:47.035Z,17.00
2022-09-07T04:59:14.158Z,17.00
2022-09-07T05:01:41.175Z,17.00
2022-09-07T05:04:08.170Z,17.00
2022-09-07T05:06:35.213Z,17.00
2022-09-07T05:09:02.220Z,16.90
2022-09-07T05:11:30.209Z,16.90
2022-09-07T05:14:03.249Z,16.90
2022-09-07T05:16:31.236Z,17.00
2022-09-07T05:19:01.710Z,17.00
2022-09-07T05:21:34.417Z,17.00
2022-09-07T05:24:02.010Z,17.10
2022-09-07T05:26:31.658Z,17.20
2022-09-07T05:31:51.179Z,17.30
2022-09-07T05:34:33.732Z,17.30
2022-09-07T05:37:01.973Z,17.30
2022-09-07T05:39:29.447Z,17.40
2022-09-07T05:41:57.067Z,17.40
2022-09-07T05:47:11.514Z,17.60
2022-09-07T05:49:38.435Z,17.80
2022-09-07T05:52:05.697Z,17.80
2022-09-07T05:54:32.617Z,17.80
2022-09-07T05:56:59.613Z,17.80
2022-09-07T05:59:26.504Z,17.80
2022-09-07T06:01:53.699Z,17.80
2022-09-07T06:04:20.758Z,17.80
2022-09-07T06:07:17.743Z,17.70
2022-09-07T06:12:24.744Z,17.70
2022-09-07T06:14:51.747Z,17.80
2022-09-07T06:17:18.695Z,17.80
2022-09-07T06:19:45.599Z,17.90
2022-09-07T06:22:13.323Z,17.80
2022-09-07T06:24:40.407Z,17.80
2022-09-07T06:27:07.311Z,17.90
2022-09-07T06:29:34.341Z,17.90
2022-09-07T06:34:48.841Z,17.90
2022-09-07T06:37:16.846Z,18.00
2022-09-07T06:39:44.082Z,18.00
2022-09-07T06:42:11.078Z,18.00
2022-09-07T06:44:37.988Z,18.00
2022-09-07T06:47:05.386Z,18.10
2022-09-07T06:49:32.274Z,18.10
2022-09-07T06:51:59.300Z,18.10
2022-09-07T06:57:13.318Z,18.20
2022-09-07T06:59:40.401Z,18.20
2022-09-07T07:02:09.913Z,18.30
2022-09-07T07:04:40.830Z,18.30
2022-09-07T07:07:13.316Z,18.30
2022-09-07T07:09:41.435Z,18.30
2022-09-07T07:12:09.764Z,18.50
2022-09-07T07:14:39.715Z,18.60
2022-09-07T07:17:09.693Z,18.70
2022-09-07T07:19:36.593Z,18.90
2022-09-07T07:22:45.140Z,18.90
2022-09-07T07:24:50.569Z,19.00
2022-09-07T07:27:17.625Z,19.00
2022-09-07T07:29:45.422Z,19.10
2022-09-07T07:32:12.481Z,19.10
2022-09-07T07:34:39.443Z,19.10
2022-09-07T07:37:06.387Z,19.00
2022-09-07T07:42:21.250Z,19.30
2022-09-07T07:44:48.704Z,19.40
2022-09-07T07:47:15.749Z,19.70
2022-09-07T07:49:42.677Z,19.70
2022-09-07T07:54:56.494Z,20.00
2022-09-07T07:57:23.577Z,20.20
2022-09-07T07:59:50.406Z,20.30
2022-09-07T08:02:17.914Z,20.50
2022-09-07T08:04:45.103Z,20.60
2022-09-07T08:07:12.261Z,20.90
2022-09-07T08:09:41.253Z,21.10
2022-09-07T08:12:11.604Z,21.30
2022-09-07T08:14:42.401Z,21.70
2022-09-07T08:17:15.268Z,21.90
2022-09-07T08:19:42.688Z,22.10
2022-09-07T08:22:11.559Z,21.80
2022-09-07T08:24:38.685Z,21.60
2022-09-07T08:27:06.001Z,21.50
2022-09-07T08:29:35.185Z,21.70
2022-09-07T08:32:06.445Z,21.90
2022-09-07T08:34:36.866Z,22.10
2022-09-07T08:37:04.141Z,22.40
2022-09-07T08:39:31.116Z,22.50
2022-09-07T08:42:19.849Z,22.90
2022-09-07T08:45:06.698Z,23.40
2022-09-07T08:47:45.028Z,23.80
2022-09-07T08:50:35.735Z,23.90
2022-09-07T08:53:18.349Z,23.70
2022-09-07T08:56:04.161Z,23.50
2022-09-07T08:58:51.181Z,23.60
2022-09-07T09:01:37.440Z,23.80
2022-09-07T09:04:25.486Z,23.30
2022-09-07T09:07:20.875Z,22.90
2022-09-07T09:10:19.045Z,23.00
2022-09-07T09:13:27.353Z,23.00
2022-09-07T09:16:09.604Z,23.40
2022-09-07T09:19:02.052Z,23.50
2022-09-07T09:21:29.296Z,23.70
2022-09-07T09:24:11.367Z,24.00
2022-09-07T09:26:39.535Z,23.90
2022-09-07T09:29:21.935Z,23.70
2022-09-07T09:31:48.999Z,24.20
2022-09-07T09:34:23.790Z,24.50
2022-09-07T09:36:55.936Z,24.90
2022-09-07T09:39:36.885Z,25.20
2022-09-07T09:42:24.150Z,25.70
2022-09-07T09:44:51.467Z,25.80
2022-09-07T09:47:30.760Z,25.90
2022-09-07T09:50:01.608Z,26.10
2022-09-07T09:52:41.876Z,25.80
2022-09-07T09:55:35.384Z,25.70
2022-09-07T10:01:33.522Z,26.30
2022-09-07T10:04:34.876Z,26.20
2022-09-07T10:07:25.578Z,26.00
2022-09-07T10:09:54.911Z,25.90
2022-09-07T10:12:37.011Z,26.00
2022-09-07T10:15:07.299Z,26.30
2022-09-07T10:17:41.899Z,26.40
2022-09-07T10:20:15.764Z,26.50
2022-09-07T10:22:51.998Z,26.40
2022-09-07T10:25:27.862Z,26.00
2022-09-07T10:28:14.313Z,26.10
2022-09-07T10:30:55.316Z,26.10
2022-09-07T10:37:03.411Z,26.70
2022-09-07T10:39:39.789Z,26.50
2022-09-07T10:42:09.727Z,26.40
2022-09-07T10:45:04.160Z,26.50
2022-09-07T10:47:49.156Z,26.20
2022-09-07T10:50:31.928Z,26.30
2022-09-07T10:53:40.258Z,26.30
2022-09-07T10:56:24.681Z,25.90
2022-09-07T10:59:12.620Z,25.40
2022-09-07T11:02:12.842Z,24.60
2022-09-07T11:04:49.180Z,24.40
2022-09-07T11:07:38.615Z,24.70
2022-09-07T11:10:36.701Z,25.00
2022-09-07T11:13:06.175Z,25.20
2022-09-07T11:15:44.783Z,25.40
2022-09-07T11:18:33.214Z,25.50
2022-09-07T11:21:03.675Z,25.60
2022-09-07T11:23:44.485Z,25.50
2022-09-07T11:26:38.100Z,25.40
2022-09-07T11:32:09.846Z,25.30
2022-09-07T11:34:45.779Z,25.40
2022-09-07T11:37:59.186Z,25.40
2022-09-07T11:40:36.989Z,25.40
2022-09-07T11:43:22.962Z,25.20
2022-09-07T11:46:05.111Z,25.00
2022-09-07T11:48:35.812Z,25.40
2022-09-07T11:51:10.917Z,25.80
2022-09-07T11:53:44.776Z,26.20
2022-09-07T11:56:25.427Z,26.40
2022-09-07T11:59:16.705Z,26.10
2022-09-07T12:02:58.343Z,25.80
2022-09-07T12:05:48.773Z,25.80
2022-09-07T12:08:52.840Z,25.90
2022-09-07T12:11:56.616Z,26.10
2022-09-07T12:15:13.836Z,26.00
2022-09-07T12:17:50.344Z,26.00
2022-09-07T12:20:38.696Z,25.70
2022-09-07T12:23:17.678Z,25.80
2022-09-07T12:25:47.705Z,25.90
2022-09-07T12:28:38.582Z,26.00
2022-09-07T12:31:12.403Z,26.20
2022-09-07T12:33:40.656Z,25.80
2022-09-07T12:36:26.247Z,25.40
2022-09-07T12:39:32.299Z,25.00
2022-09-07T12:45:29.023Z,25.00
2022-09-07T12:48:06.924Z,25.20
2022-09-07T12:54:18.803Z,25.50
2022-09-07T13:00:25.534Z,26.10
2022-09-07T13:03:51.724Z,26.50
2022-09-07T13:07:10.153Z,26.90
2022-09-07T13:09:41.282Z,26.90
2022-09-07T13:15:52.831Z,27.40
2022-09-07T13:18:28.918Z,29.50
2022-09-07T13:21:40.347Z,29.90
2022-09-07T13:27:11.109Z,28.10
2022-09-07T13:30:02.603Z,27.00
2022-09-07T13:35:24.311Z,26.00
2022-09-07T13:38:00.033Z,26.40
2022-09-07T13:40:32.515Z,26.30
2022-09-07T13:43:00.462Z,25.90
2022-09-07T13:45:55.079Z,25.50
2022-09-07T13:48:26.316Z,25.20
2022-09-07T13:51:05.091Z,24.90
2022-09-07T13:53:50.422Z,24.40
2022-09-07T13:56:45.653Z,24.20
2022-09-07T13:59:34.828Z,24.00
2022-09-07T14:02:02.589Z,24.00
2022-09-07T14:04:42.021Z,24.10
2022-09-07T14:07:19.942Z,24.30
2022-09-07T14:09:50.411Z,24.40
2022-09-07T14:12:20.524Z,24.70
2022-09-07T14:15:27.936Z,24.90
2022-09-07T14:18:11.180Z,25.10
2022-09-07T14:20:44.075Z,25.40
2022-09-07T14:23:30.955Z,25.60
2022-09-07T14:26:34.298Z,26.00
2022-09-07T14:29:01.637Z,26.30
2022-09-07T14:31:28.704Z,26.40
2022-09-07T14:36:44.738Z,27.50
2022-09-07T14:39:14.319Z,27.90
2022-09-07T14:41:42.148Z,28.70
2022-09-07T14:44:28.429Z,28.30
2022-09-07T14:46:57.306Z,28.30
2022-09-07T14:49:24.783Z,28.00
2022-09-07T14:51:54.318Z,27.80
2022-09-07T14:54:32.376Z,27.20
2022-09-07T14:57:09.360Z,26.50
2022-09-07T14:59:46.402Z,25.90
2022-09-07T15:02:19.655Z,25.40
2022-09-07T15:04:49.901Z,25.00
2022-09-07T15:07:40.844Z,24.40
2022-09-07T15:10:23.666Z,24.10
2022-09-07T15:13:01.769Z,24.00
2022-09-07T15:15:37.376Z,23.80
2022-09-07T15:18:44.437Z,23.70
2022-09-07T15:21:11.339Z,23.70
2022-09-07T15:23:39.094Z,23.70
2022-09-07T15:26:07.243Z,23.70
2022-09-07T15:34:12.575Z,23.40
2022-09-07T15:36:47.144Z,23.30
2022-09-07T15:39:24.187Z,23.20
2022-09-07T15:41:52.342Z,23.10
2022-09-07T15:44:26.149Z,23.00
2022-09-07T15:49:47.648Z,22.90
2022-09-07T15:52:16.489Z,22.90
2022-09-07T15:54:43.434Z,22.90
2022-09-07T15:59:57.988Z,22.80
2022-09-07T16:05:14.599Z,22.80
2022-09-07T16:10:31.054Z,22.80
2022-09-07T16:13:02.703Z,22.80
2022-09-07T16:15:31.051Z,22.70
2022-09-07T16:17:58.338Z,22.60
2022-09-07T16:20:25.306Z,22.50
2022-09-07T16:25:39.837Z,22.40
2022-09-07T16:28:07.260Z,22.30
2022-09-07T16:30:34.335Z,22.20
2022-09-07T16:33:01.434Z,22.10
2022-09-07T16:35:28.267Z,21.90
2022-09-07T16:40:42.124Z,21.80
2022-09-07T16:43:09.807Z,21.70
2022-09-07T16:48:23.838Z,21.70
2022-09-07T16:51:01.143Z,21.60
2022-09-07T16:53:34.906Z,21.50
2022-09-07T16:56:08.280Z,21.40
2022-09-07T16:58:39.197Z,21.40
2022-09-07T17:01:09.109Z,21.30
2022-09-07T17:03:37.869Z,21.30
2022-09-07T17:06:08.796Z,21.30
2022-09-07T17:08:38.316Z,21.30
2022-09-07T17:11:18.950Z,21.20
2022-09-07T17:13:46.708Z,21.20
2022-09-07T17:16:23.485Z,21.00
2022-09-07T17:21:40.061Z,20.90
2022-09-07T17:24:08.871Z,20.90
2022-09-07T17:26:36.411Z,20.90
2022-09-07T17:29:03.797Z,20.90
2022-09-07T17:34:21.410Z,20.70
2022-09-07T17:36:48.474Z,20.60
2022-09-07T17:39:17.651Z,20.60
2022-09-07T17:41:54.671Z,20.50
2022-09-07T17:44:23.317Z,20.40
2022-09-07T17:46:50.709Z,20.40
2022-09-07T17:49:17.713Z,20.30
2022-09-07T17:51:45.675Z,20.20
2022-09-07T17:54:17.640Z,20.20
2022-09-07T17:56:45.207Z,20.10
2022-09-07T18:02:00.952Z,20.10
2022-09-07T18:04:28.490Z,20.00
2022-09-07T18:06:55.641Z,20.00
2022-09-07T18:09:22.922Z,20.00
2022-09-07T18:11:50.578Z,19.90
2022-09-07T18:14:19.017Z,19.90
2022-09-07T18:16:49.355Z,19.80
2022-09-07T18:19:17.844Z,19.70
2022-09-07T18:21:45.276Z,19.50
2022-09-07T18:26:51.989Z,19.40
2022-09-07T18:29:33.480Z,19.40
